createdAt,value
2017-08-17T00:00:16.237Z,17.93
2017-08-17T00:01:16.204Z,17.89
2017-08-17T00:02:16.206Z,17.89
2017-08-17T00:03:16.209Z,17.88
2017-08-17T00:04:16.212Z,17.85
2017-08-17T00:05:16.216Z,17.86
2017-08-17T00:06:16.217Z,17.86
2017-08-17T00:07:16.222Z,17.83
2017-08-17T00:08:16.226Z,17.82
2017-08-17T00:09:16.240Z,17.79
2017-08-17T00:10:16.234Z,17.79
2017-08-17T00:11:16.236Z,17.77
2017-08-17T00:12:16.236Z,17.78
2017-08-17T00:13:16.240Z,17.78
2017-08-17T00:14:16.240Z,17.81
2017-08-17T00:15:16.256Z,17.81
2017-08-17T00:16:16.250Z,17.82
2017-08-17T00:17:16.249Z,17.83
2017-08-17T00:18:16.254Z,17.85
2017-08-17T00:19:16.256Z,17.84
2017-08-17T00:20:16.260Z,17.84
2017-08-17T00:21:16.260Z,17.85
2017-08-17T00:22:16.303Z,17.82
2017-08-17T00:23:16.266Z,17.81
2017-08-17T00:24:16.270Z,17.81
2017-08-17T00:25:16.273Z,17.76
2017-08-17T00:26:16.276Z,17.73
2017-08-17T00:27:16.283Z,17.69
2017-08-17T00:28:16.283Z,17.66
2017-08-17T00:29:16.283Z,17.65
2017-08-17T00:30:16.284Z,17.65
2017-08-17T00:31:16.291Z,17.65
2017-08-17T00:32:16.298Z,17.64
2017-08-17T00:33:16.292Z,17.64
2017-08-17T00:34:16.300Z,17.61
2017-08-17T00:35:16.305Z,17.62
2017-08-17T00:36:16.304Z,17.60
2017-08-17T00:37:16.311Z,17.59
2017-08-17T00:38:16.313Z,17.60
2017-08-17T00:39:16.317Z,17.59
2017-08-17T00:40:16.321Z,17.59
2017-08-17T00:41:16.318Z,17.59
2017-08-17T00:42:16.326Z,17.57
2017-08-17T00:43:16.324Z,17.56
2017-08-17T00:44:16.329Z,17.53
2017-08-17T00:45:16.331Z,17.54
2017-08-17T00:46:16.342Z,17.51
2017-08-17T00:47:16.338Z,17.49
2017-08-17T00:48:16.338Z,17.49
2017-08-17T00:49:16.341Z,17.45
2017-08-17T00:50:16.351Z,17.44
2017-08-17T00:51:16.346Z,17.41
2017-08-17T00:52:16.350Z,17.40
2017-08-17T00:53:16.356Z,17.39
2017-08-17T00:54:16.358Z,17.37
2017-08-17T00:55:16.362Z,17.38
2017-08-17T00:56:16.361Z,17.37
2017-08-17T00:57:16.373Z,17.39
2017-08-17T00:58:16.389Z,17.40
2017-08-17T00:59:16.386Z,17.43
2017-08-17T01:02:33.149Z,17.45
2017-08-17T01:02:34.212Z,17.49
2017-08-17T01:02:34.824Z,17.51
2017-08-17T01:03:16.425Z,17.57
2017-08-17T01:05:51.999Z,17.58
2017-08-17T01:05:53.515Z,17.58
2017-08-17T01:08:35.225Z,17.59
2017-08-17T01:08:36.777Z,17.60
2017-08-17T01:08:37.387Z,17.59
2017-08-17T01:11:57.847Z,17.59
2017-08-17T01:11:58.927Z,17.54
2017-08-17T01:11:59.540Z,17.53
2017-08-17T01:15:05.105Z,17.51
2017-08-17T01:15:06.308Z,17.49
2017-08-17T01:15:06.920Z,17.45
2017-08-17T01:20:16.325Z,17.40
2017-08-17T01:20:17.524Z,17.35
2017-08-17T01:20:18.130Z,17.34
2017-08-17T01:22:24.921Z,17.22
2017-08-17T01:22:26.382Z,17.19
2017-08-17T01:23:16.353Z,17.16
2017-08-17T01:26:38.142Z,17.15
2017-08-17T01:26:39.684Z,17.14
2017-08-17T01:26:40.299Z,17.12
2017-08-17T01:32:18.033Z,17.11
2017-08-17T01:32:19.132Z,17.10
2017-08-17T01:32:19.842Z,17.09
2017-08-17T01:34:24.979Z,17.08
2017-08-17T01:34:26.388Z,17.10
2017-08-17T01:35:17.958Z,17.10
2017-08-17T01:38:39.161Z,17.11
2017-08-17T01:38:40.639Z,17.14
2017-08-17T01:38:41.245Z,17.15
2017-08-17T01:41:46.911Z,17.13
2017-08-17T01:41:48.492Z,17.13
2017-08-17T01:41:49.101Z,17.13
2017-08-17T01:44:29.156Z,17.14
2017-08-17T01:44:30.688Z,17.13
2017-08-17T01:44:31.304Z,17.12
2017-08-17T01:46:29.879Z,17.08
2017-08-17T01:46:30.907Z,17.06
2017-08-17T01:47:18.013Z,17.03
2017-08-17T01:50:35.199Z,17.02
2017-08-17T01:50:36.309Z,17.00
2017-08-17T01:50:36.917Z,16.97
2017-08-17T01:57:08.093Z,16.95
2017-08-17T01:57:09.714Z,16.95
2017-08-17T01:57:10.323Z,16.93
2017-08-17T01:57:10.927Z,16.93
2017-08-17T01:57:11.537Z,16.89
2017-08-17T01:57:12.151Z,16.90
2017-08-17T01:59:51.864Z,16.89
2017-08-17T01:59:53.432Z,16.85
2017-08-17T01:59:54.045Z,16.82
2017-08-17T02:00:18.274Z,16.80
2017-08-17T02:01:18.018Z,16.80
2017-08-17T02:02:18.017Z,16.81
2017-08-17T02:03:18.009Z,16.82
2017-08-17T02:04:18.027Z,16.79
2017-08-17T02:05:18.024Z,16.77
2017-08-17T02:06:18.013Z,16.78
2017-08-17T02:07:18.014Z,16.80
2017-08-17T02:08:18.028Z,16.81
2017-08-17T02:09:18.076Z,16.82
2017-08-17T02:10:18.085Z,16.81
2017-08-17T02:11:18.016Z,16.83
2017-08-17T02:12:18.049Z,16.82
2017-08-17T02:13:18.042Z,16.80
2017-08-17T02:14:18.050Z,16.79
2017-08-17T02:15:18.074Z,16.79
2017-08-17T02:16:18.153Z,16.81
2017-08-17T02:17:18.049Z,16.81
2017-08-17T02:18:18.047Z,16.78
2017-08-17T02:19:18.069Z,16.78
2017-08-17T02:20:18.034Z,16.72
2017-08-17T02:21:18.079Z,16.71
2017-08-17T02:22:18.071Z,16.68
2017-08-17T02:23:18.061Z,16.71
2017-08-17T02:24:18.074Z,16.69
2017-08-17T02:25:18.064Z,16.69
2017-08-17T02:26:18.059Z,16.69
2017-08-17T02:27:18.074Z,16.70
2017-08-17T02:28:18.079Z,16.69
2017-08-17T02:29:18.061Z,16.69
2017-08-17T02:30:18.100Z,16.67
2017-08-17T02:31:18.101Z,16.65
2017-08-17T02:32:18.105Z,16.63
2017-08-17T02:33:18.075Z,16.60
2017-08-17T02:34:18.103Z,16.58
2017-08-17T02:35:18.087Z,16.56
2017-08-17T02:36:18.086Z,16.54
2017-08-17T02:37:18.117Z,16.55
2017-08-17T02:38:18.121Z,16.52
2017-08-17T02:39:18.116Z,16.50
2017-08-17T02:40:18.132Z,16.48
2017-08-17T02:41:18.427Z,16.47
2017-08-17T02:42:18.101Z,16.49
2017-08-17T02:43:18.098Z,16.51
2017-08-17T02:44:18.105Z,16.49
2017-08-17T02:45:18.222Z,16.50
2017-08-17T02:46:18.136Z,16.52
2017-08-17T02:47:18.111Z,16.53
2017-08-17T02:48:18.113Z,16.50
2017-08-17T02:49:18.117Z,16.48
2017-08-17T02:50:18.121Z,16.46
2017-08-17T02:51:18.453Z,16.42
2017-08-17T02:52:18.129Z,16.42
2017-08-17T02:53:18.132Z,16.42
2017-08-17T02:54:18.138Z,16.40
2017-08-17T02:55:18.138Z,16.39
2017-08-17T02:56:18.137Z,16.39
2017-08-17T02:57:18.139Z,16.40
2017-08-17T02:58:18.149Z,16.42
2017-08-17T02:59:18.301Z,16.42
2017-08-17T03:00:18.161Z,16.40
2017-08-17T03:01:18.356Z,16.40
2017-08-17T03:02:18.153Z,16.42
2017-08-17T03:03:18.361Z,16.42
2017-08-17T03:04:18.162Z,16.42
2017-08-17T03:05:18.458Z,16.39
2017-08-17T03:06:18.168Z,16.37
2017-08-17T03:07:18.172Z,16.37
2017-08-17T03:08:18.176Z,16.36
2017-08-17T03:09:18.179Z,16.35
2017-08-17T03:10:18.186Z,16.35
2017-08-17T03:11:18.199Z,16.36
2017-08-17T03:12:18.186Z,16.38
2017-08-17T03:13:18.188Z,16.39
2017-08-17T03:14:18.189Z,16.42
2017-08-17T03:15:18.223Z,16.43
2017-08-17T03:16:18.198Z,16.43
2017-08-17T03:17:18.221Z,16.45
2017-08-17T03:18:18.205Z,16.45
2017-08-17T03:19:18.221Z,16.42
2017-08-17T03:20:18.208Z,16.42
2017-08-17T03:21:18.235Z,16.41
2017-08-17T03:22:18.211Z,16.40
2017-08-17T03:23:18.258Z,16.39
2017-08-17T03:24:18.220Z,16.36
2017-08-17T03:25:18.272Z,16.34
2017-08-17T03:26:18.224Z,16.33
2017-08-17T03:27:18.283Z,16.33
2017-08-17T03:28:18.231Z,16.34
2017-08-17T03:29:18.297Z,16.33
2017-08-17T03:30:18.236Z,16.32
2017-08-17T03:31:18.357Z,16.31
2017-08-17T03:32:18.242Z,16.31
2017-08-17T03:33:18.429Z,16.28
2017-08-17T03:34:18.246Z,16.27
2017-08-17T03:35:18.384Z,16.25
2017-08-17T03:36:18.250Z,16.22
2017-08-17T03:37:18.474Z,16.23
2017-08-17T03:38:18.260Z,16.21
2017-08-17T03:39:18.260Z,16.20
2017-08-17T03:40:18.267Z,16.20
2017-08-17T03:41:18.271Z,16.18
2017-08-17T03:42:18.273Z,16.22
2017-08-17T03:43:18.282Z,16.21
2017-08-17T03:44:18.291Z,16.21
2017-08-17T03:45:18.279Z,16.23
2017-08-17T03:46:18.283Z,16.25
2017-08-17T03:47:18.290Z,16.26
2017-08-17T03:48:18.288Z,16.23
2017-08-17T03:49:18.300Z,16.23
2017-08-17T03:50:18.299Z,16.24
2017-08-17T03:51:18.313Z,16.25
2017-08-17T03:52:13.814Z,16.25
2017-08-17T03:54:09.986Z,16.25
2017-08-17T03:54:11.523Z,16.25
2017-08-17T03:54:18.301Z,16.24
2017-08-17T03:55:18.308Z,16.25
2017-08-17T03:56:18.308Z,16.24
2017-08-17T03:57:18.381Z,16.24
2017-08-17T03:58:18.316Z,16.24
2017-08-17T03:59:18.402Z,16.23
2017-08-17T04:00:18.325Z,16.21
2017-08-17T04:01:18.413Z,16.22
2017-08-17T04:02:18.336Z,16.22
2017-08-17T04:03:18.424Z,16.20
2017-08-17T04:04:18.341Z,16.19
2017-08-17T04:05:18.337Z,16.19
2017-08-17T04:06:18.342Z,16.18
2017-08-17T04:07:18.350Z,16.21
2017-08-17T04:08:18.345Z,16.22
2017-08-17T04:09:18.348Z,16.22
2017-08-17T04:10:18.350Z,16.22
2017-08-17T04:11:18.356Z,16.23
2017-08-17T04:12:18.357Z,16.21
2017-08-17T04:13:18.366Z,16.22
2017-08-17T04:14:18.368Z,16.24
2017-08-17T04:15:18.427Z,16.25
2017-08-17T04:16:18.369Z,16.27
2017-08-17T04:17:18.446Z,16.31
2017-08-17T04:18:18.377Z,16.31
2017-08-17T04:19:18.420Z,16.33
2017-08-17T04:20:18.528Z,16.37
2017-08-17T04:21:18.401Z,16.40
2017-08-17T04:22:18.385Z,16.42
2017-08-17T04:23:18.388Z,16.45
2017-08-17T04:24:18.390Z,16.46
2017-08-17T04:25:18.393Z,16.46
2017-08-17T04:26:18.428Z,16.47
2017-08-17T04:27:18.408Z,16.48
2017-08-17T04:28:18.402Z,16.49
2017-08-17T04:29:18.408Z,16.53
2017-08-17T04:30:18.415Z,16.57
2017-08-17T04:31:18.424Z,16.61
2017-08-17T04:32:18.415Z,16.67
2017-08-17T04:33:18.439Z,16.72
2017-08-17T04:34:18.421Z,16.76
2017-08-17T04:35:18.469Z,16.80
2017-08-17T04:36:18.424Z,16.85
2017-08-17T04:37:18.467Z,16.88
2017-08-17T04:38:18.431Z,16.91
2017-08-17T04:39:18.503Z,16.97
2017-08-17T04:40:18.439Z,17.02
2017-08-17T04:41:18.501Z,17.07
2017-08-17T04:42:18.442Z,17.09
2017-08-17T04:43:18.497Z,17.14
2017-08-17T04:44:18.451Z,17.19
2017-08-17T04:45:18.457Z,17.24
2017-08-17T04:46:18.461Z,17.29
2017-08-17T04:47:18.466Z,17.34
2017-08-17T04:48:18.461Z,17.37
2017-08-17T04:49:18.462Z,17.39
2017-08-17T04:50:18.467Z,17.43
2017-08-17T04:51:18.469Z,17.48
2017-08-17T04:52:18.468Z,17.50
2017-08-17T04:53:18.565Z,17.54
2017-08-17T04:54:18.480Z,17.60
2017-08-17T04:55:18.564Z,17.65
2017-08-17T04:56:18.483Z,17.67
2017-08-17T04:57:18.487Z,17.70
2017-08-17T04:58:18.491Z,17.73
2017-08-17T04:59:18.496Z,17.77
2017-08-17T05:00:18.495Z,17.82
2017-08-17T05:01:18.499Z,17.87
2017-08-17T05:02:18.501Z,17.94
2017-08-17T05:03:18.510Z,17.99
2017-08-17T05:04:18.532Z,18.05
2017-08-17T05:05:18.511Z,18.09
2017-08-17T05:06:18.538Z,18.14
2017-08-17T05:07:18.519Z,18.20
2017-08-17T05:08:18.520Z,18.24
2017-08-17T05:09:18.522Z,18.30
2017-08-17T05:10:18.528Z,18.33
2017-08-17T05:11:18.527Z,18.39
2017-08-17T05:12:18.529Z,18.47
2017-08-17T05:13:18.531Z,18.55
2017-08-17T05:14:18.542Z,18.60
2017-08-17T05:15:18.552Z,18.64
2017-08-17T05:16:18.545Z,18.70
2017-08-17T05:17:18.547Z,18.74
2017-08-17T05:18:18.546Z,18.77
2017-08-17T05:19:18.575Z,18.80
2017-08-17T05:20:18.550Z,18.84
2017-08-17T05:21:18.554Z,18.91
2017-08-17T05:22:18.558Z,18.95
2017-08-17T05:23:18.574Z,18.97
2017-08-17T05:24:18.564Z,19.02
2017-08-17T05:25:18.571Z,19.06
2017-08-17T05:26:18.572Z,19.08
2017-08-17T05:27:18.616Z,19.07
2017-08-17T05:28:18.575Z,19.08
2017-08-17T05:29:18.607Z,19.08
2017-08-17T05:30:18.589Z,19.12
2017-08-17T05:31:18.653Z,19.17
2017-08-17T05:32:18.597Z,19.22
2017-08-17T05:33:18.658Z,19.28
2017-08-17T05:34:18.592Z,19.30
2017-08-17T05:35:18.607Z,19.32
2017-08-17T05:36:18.597Z,19.33
2017-08-17T05:37:18.653Z,19.37
2017-08-17T05:38:18.607Z,19.44
2017-08-17T05:39:18.627Z,19.51
2017-08-17T05:40:18.610Z,19.56
2017-08-17T05:41:18.675Z,19.67
2017-08-17T05:42:18.613Z,19.72
2017-08-17T05:43:18.681Z,19.84
2017-08-17T05:44:18.620Z,19.87
2017-08-17T05:45:18.695Z,19.86
2017-08-17T05:46:18.625Z,19.88
2017-08-17T05:47:18.637Z,19.90
2017-08-17T05:48:18.632Z,19.87
2017-08-17T05:49:18.781Z,19.79
2017-08-17T05:50:18.639Z,19.76
2017-08-17T05:51:18.642Z,19.64
2017-08-17T05:52:18.648Z,19.52
2017-08-17T05:53:18.643Z,19.42
2017-08-17T05:54:18.652Z,19.39
2017-08-17T05:55:18.651Z,19.33
2017-08-17T05:56:18.654Z,19.33
2017-08-17T05:57:18.664Z,19.30
2017-08-17T05:58:18.662Z,19.26
2017-08-17T06:59:43.770Z,19.83
2017-08-17T07:00:36.029Z,19.82
2017-08-17T07:01:28.503Z,19.85
2017-08-17T07:02:18.854Z,19.90
2017-08-17T07:03:18.858Z,19.91
2017-08-17T07:04:18.875Z,19.99
2017-08-17T07:05:18.867Z,20.01
2017-08-17T07:06:18.865Z,19.98
2017-08-17T07:07:19.048Z,20.00
2017-08-17T07:08:18.872Z,20.03
2017-08-17T07:09:18.909Z,20.04
2017-08-17T07:10:18.902Z,20.13
2017-08-17T07:11:18.933Z,20.26
2017-08-17T07:12:18.881Z,20.36
2017-08-17T07:13:18.909Z,20.51
2017-08-17T07:14:22.383Z,20.68
2017-08-17T07:15:18.930Z,20.80
2017-08-17T07:16:21.842Z,20.94
2017-08-17T07:17:18.908Z,21.07
2017-08-17T07:18:18.902Z,21.06
2017-08-17T07:19:18.903Z,21.08
2017-08-17T07:20:18.910Z,21.03
2017-08-17T07:21:18.911Z,21.03
2017-08-17T07:22:18.914Z,21.09
2017-08-17T07:23:18.916Z,21.23
2017-08-17T07:24:18.922Z,21.38
2017-08-17T07:25:19.073Z,21.56
2017-08-17T07:26:18.932Z,21.72
2017-08-17T07:27:18.930Z,21.83
2017-08-17T07:28:18.932Z,21.81
2017-08-17T07:29:18.933Z,21.89
2017-08-17T07:30:18.939Z,21.94
2017-08-17T07:31:18.940Z,22.06
2017-08-17T07:32:18.944Z,22.13
2017-08-17T07:33:18.944Z,22.12
2017-08-17T07:34:18.949Z,22.18
2017-08-17T07:35:18.949Z,22.27
2017-08-17T07:36:18.952Z,22.28
2017-08-17T07:37:18.953Z,22.40
2017-08-17T07:38:18.965Z,22.56
2017-08-17T07:39:18.964Z,22.67
2017-08-17T07:40:18.966Z,22.82
2017-08-17T07:41:18.981Z,22.97
2017-08-17T07:42:18.968Z,23.06
2017-08-17T07:43:18.993Z,23.17
2017-08-17T07:44:49.621Z,23.03
2017-08-17T07:45:41.762Z,23.03
2017-08-17T07:46:40.098Z,22.47
2017-08-17T07:47:18.984Z,22.34
2017-08-17T07:48:19.055Z,22.18
2017-08-17T07:49:18.994Z,21.89
2017-08-17T07:50:18.993Z,21.73
2017-08-17T07:51:18.996Z,21.67
2017-08-17T07:52:18.998Z,21.65
2017-08-17T07:53:19.007Z,21.59
2017-08-17T07:54:19.004Z,21.58
2017-08-17T07:55:19.376Z,21.56
2017-08-17T07:56:19.012Z,21.52
2017-08-17T07:57:19.017Z,21.51
2017-08-17T07:58:19.310Z,21.49
2017-08-17T07:59:19.019Z,21.39
2017-08-17T08:00:19.020Z,21.36
2017-08-17T08:01:19.043Z,21.42
2017-08-17T08:02:19.027Z,21.44
2017-08-17T08:03:19.031Z,21.43
2017-08-17T08:04:19.033Z,21.47
2017-08-17T08:05:19.042Z,21.47
2017-08-17T08:06:19.039Z,21.50
2017-08-17T08:07:19.043Z,21.49
2017-08-17T08:08:19.049Z,21.48
2017-08-17T08:09:19.078Z,21.48
2017-08-17T08:10:19.099Z,21.49
2017-08-17T08:11:19.298Z,21.48
2017-08-17T08:12:19.056Z,21.52
2017-08-17T08:13:19.097Z,21.57
2017-08-17T08:14:19.061Z,21.59
2017-08-17T08:15:19.110Z,21.61
2017-08-17T08:16:19.110Z,21.62
2017-08-17T08:17:21.300Z,21.60
2017-08-17T08:18:19.075Z,21.58
2017-08-17T08:19:19.077Z,21.53
2017-08-17T08:20:19.080Z,21.50
2017-08-17T08:21:19.083Z,21.49
2017-08-17T08:22:19.126Z,21.51
2017-08-17T08:23:19.119Z,21.52
2017-08-17T08:24:19.088Z,21.50
2017-08-17T08:25:19.094Z,21.53
2017-08-17T08:26:19.096Z,21.55
2017-08-17T08:27:19.096Z,21.56
2017-08-17T08:28:19.103Z,21.57
2017-08-17T08:29:19.109Z,21.55
2017-08-17T08:30:19.161Z,21.54
2017-08-17T08:31:19.131Z,21.54
2017-08-17T08:32:19.117Z,21.55
2017-08-17T08:33:19.133Z,21.54
2017-08-17T08:34:26.535Z,21.56
2017-08-17T08:35:19.724Z,21.54
2017-08-17T08:36:19.131Z,21.55
2017-08-17T08:37:17.586Z,21.55
2017-08-17T08:38:10.318Z,21.53
2017-08-17T08:38:42.004Z,21.55
2017-08-17T08:39:30.499Z,21.59
2017-08-17T08:40:19.136Z,21.62
2017-08-17T08:41:19.179Z,21.71
2017-08-17T08:42:19.142Z,21.87
2017-08-17T08:43:19.193Z,22.10
2017-08-17T08:44:19.147Z,22.43
2017-08-17T08:45:19.207Z,22.69
2017-08-17T08:46:19.152Z,22.88
2017-08-17T08:47:19.220Z,23.01
2017-08-17T08:48:19.157Z,23.06
2017-08-17T08:49:19.243Z,23.07
2017-08-17T08:50:19.197Z,23.17
2017-08-17T08:51:19.247Z,23.10
2017-08-17T08:52:19.171Z,23.16
2017-08-17T08:53:19.285Z,23.27
2017-08-17T08:54:19.240Z,23.47
2017-08-17T08:55:19.250Z,23.68
2017-08-17T08:56:19.180Z,23.83
2017-08-17T08:57:19.212Z,23.90
2017-08-17T08:58:17.591Z,23.90
2017-08-17T08:58:48.720Z,23.72
2017-08-17T08:59:47.295Z,23.53
2017-08-17T09:00:19.195Z,23.50
2017-08-17T09:01:19.241Z,23.49
2017-08-17T09:02:19.199Z,23.45
2017-08-17T09:03:19.255Z,23.66
2017-08-17T09:04:19.207Z,23.94
2017-08-17T09:05:19.270Z,24.32
2017-08-17T09:06:19.208Z,24.69
2017-08-17T09:07:19.285Z,24.91
2017-08-17T09:08:19.214Z,25.11
2017-08-17T09:09:19.300Z,25.12
2017-08-17T09:10:19.223Z,25.17
2017-08-17T09:11:19.314Z,25.20
2017-08-17T09:12:19.227Z,25.39
2017-08-17T09:13:19.328Z,25.61
2017-08-17T09:14:19.229Z,25.73
2017-08-17T09:15:19.344Z,25.88
2017-08-17T09:16:19.241Z,26.18
2017-08-17T09:17:19.262Z,26.48
2017-08-17T09:18:19.241Z,26.74
2017-08-17T09:19:17.567Z,26.74
2017-08-17T09:20:09.762Z,26.91
2017-08-17T09:20:40.921Z,27.07
2017-08-17T09:21:29.132Z,26.86
2017-08-17T09:22:19.258Z,26.63
2017-08-17T09:23:19.300Z,26.77
2017-08-17T09:24:19.275Z,26.83
2017-08-17T09:25:19.314Z,26.72
2017-08-17T09:26:19.266Z,26.50
2017-08-17T09:27:19.334Z,26.39
2017-08-17T09:28:19.278Z,26.57
2017-08-17T09:29:19.344Z,26.84
2017-08-17T09:30:19.280Z,27.07
2017-08-17T09:31:19.357Z,27.35
2017-08-17T09:32:19.285Z,27.76
2017-08-17T09:33:19.372Z,28.00
2017-08-17T09:34:19.289Z,28.23
2017-08-17T09:35:19.387Z,27.74
2017-08-17T09:36:19.295Z,27.89
2017-08-17T09:37:19.299Z,28.16
2017-08-17T09:38:19.344Z,28.50
2017-08-17T09:39:19.306Z,28.56
2017-08-17T09:40:19.313Z,28.84
2017-08-17T09:41:19.322Z,29.07
2017-08-17T09:42:19.311Z,29.25
2017-08-17T09:43:19.327Z,29.57
2017-08-17T09:44:19.316Z,29.74
2017-08-17T09:45:19.324Z,29.48
2017-08-17T09:46:19.324Z,29.50
2017-08-17T09:47:19.327Z,29.30
2017-08-17T09:48:19.330Z,28.98
2017-08-17T09:49:19.343Z,29.33
2017-08-17T09:50:19.340Z,29.71
2017-08-17T09:51:19.338Z,29.98
2017-08-17T09:52:19.343Z,29.99
2017-08-17T09:53:19.345Z,30.18
2017-08-17T09:54:19.351Z,30.02
2017-08-17T09:55:19.351Z,30.07
2017-08-17T09:56:19.356Z,29.99
2017-08-17T09:57:19.394Z,29.78
2017-08-17T09:58:19.368Z,29.65
2017-08-17T09:59:19.363Z,29.88
2017-08-17T10:00:19.368Z,29.98
2017-08-17T10:01:19.372Z,30.22
2017-08-17T10:02:19.371Z,30.42
2017-08-17T10:03:19.386Z,30.82
2017-08-17T10:04:19.376Z,30.51
2017-08-17T10:05:19.391Z,30.48
2017-08-17T10:06:19.383Z,30.28
2017-08-17T10:07:19.406Z,30.01
2017-08-17T10:08:19.386Z,29.50
2017-08-17T10:09:19.420Z,29.44
2017-08-17T10:10:19.395Z,29.39
2017-08-17T10:11:38.104Z,29.70
2017-08-17T10:12:19.399Z,29.28
2017-08-17T10:13:19.405Z,29.00
2017-08-17T10:14:19.406Z,29.12
2017-08-17T10:15:19.464Z,29.15
2017-08-17T10:16:19.414Z,28.77
2017-08-17T10:17:19.478Z,29.04
2017-08-17T10:18:19.418Z,29.42
2017-08-17T10:19:19.503Z,29.23
2017-08-17T10:20:19.433Z,29.12
2017-08-17T10:21:19.508Z,29.49
2017-08-17T10:22:19.428Z,29.77
2017-08-17T10:23:19.522Z,30.15
2017-08-17T10:24:19.431Z,30.47
2017-08-17T10:25:19.433Z,30.52
2017-08-17T10:26:19.480Z,30.56
2017-08-17T10:27:19.551Z,30.81
2017-08-17T10:28:19.442Z,31.24
2017-08-17T10:29:19.450Z,31.42
2017-08-17T10:30:19.456Z,31.68
2017-08-17T10:31:19.458Z,31.64
2017-08-17T10:32:19.458Z,31.77
2017-08-17T10:33:19.463Z,31.77
2017-08-17T10:34:19.461Z,31.24
2017-08-17T10:35:19.508Z,31.23
2017-08-17T17:41:36.964Z,24.88
2017-08-17T17:42:19.507Z,24.90
2017-08-17T17:43:19.506Z,24.90
2017-08-17T17:44:19.512Z,24.91
2017-08-17T17:45:19.516Z,24.91
2017-08-17T17:46:20.688Z,24.87
2017-08-17T17:47:20.687Z,24.84
2017-08-17T17:48:20.691Z,24.82
2017-08-17T17:49:20.697Z,24.79
2017-08-17T17:50:20.698Z,24.74
2017-08-17T17:51:20.699Z,24.70
2017-08-17T17:52:20.752Z,24.67
2017-08-17T17:53:20.748Z,24.64
2017-08-17T17:54:20.717Z,24.62
2017-08-17T17:55:20.743Z,24.60
2017-08-17T17:56:20.719Z,24.57
2017-08-17T17:57:20.720Z,24.57
2017-08-17T17:58:22.911Z,24.55
2017-08-17T17:59:20.728Z,24.53
2017-08-17T18:00:20.731Z,24.52
2017-08-17T18:01:20.736Z,24.53
2017-08-17T18:02:20.736Z,24.50
2017-08-17T18:03:20.734Z,24.48
2017-08-17T18:04:20.741Z,24.47
2017-08-17T18:05:20.748Z,24.46
2017-08-17T18:06:20.760Z,24.47
2017-08-17T18:07:20.749Z,24.44
2017-08-17T18:08:20.751Z,24.39
2017-08-17T18:09:20.757Z,24.37
2017-08-17T18:10:20.757Z,24.32
2017-08-17T18:11:20.757Z,24.32
2017-08-17T18:12:20.759Z,24.30
2017-08-17T18:13:20.765Z,24.28
2017-08-17T18:14:20.765Z,24.26
2017-08-17T18:15:20.770Z,24.23
2017-08-17T18:16:20.774Z,24.20
2017-08-17T18:17:20.776Z,24.16
2017-08-17T18:18:20.783Z,24.15
2017-08-17T18:19:20.780Z,24.12
2017-08-17T18:20:20.788Z,24.09
2017-08-17T18:21:20.788Z,24.06
2017-08-17T18:22:20.788Z,24.04
2017-08-17T18:23:20.804Z,24.01
2017-08-17T18:24:20.819Z,23.98
2017-08-17T18:25:20.878Z,23.96
2017-08-17T18:26:20.809Z,23.95
2017-08-17T18:27:20.919Z,23.94
2017-08-17T18:28:20.875Z,23.93
2017-08-17T18:29:20.855Z,23.89
2017-08-17T18:30:20.814Z,23.86
2017-08-17T18:31:20.827Z,23.83
2017-08-17T18:32:20.825Z,23.79
2017-08-17T18:33:20.914Z,23.77
2017-08-17T18:34:20.871Z,23.71
2017-08-17T18:35:20.874Z,23.67
2017-08-17T18:36:20.871Z,23.63
2017-08-17T18:37:20.893Z,23.59
2017-08-17T18:38:20.836Z,23.54
2017-08-17T18:39:20.901Z,23.53
2017-08-17T18:40:21.493Z,23.50
2017-08-17T18:41:20.950Z,23.50
2017-08-17T18:42:20.858Z,23.47
2017-08-17T18:43:20.942Z,23.47
2017-08-17T18:44:20.856Z,23.47
2017-08-17T18:45:20.925Z,23.46
2017-08-17T18:46:20.862Z,23.45
2017-08-17T18:47:20.861Z,23.43
2017-08-17T18:48:20.865Z,23.41
2017-08-17T18:49:20.873Z,23.40
2017-08-17T18:50:20.871Z,23.37
2017-08-17T18:51:20.872Z,23.35
2017-08-17T18:52:20.904Z,23.33
2017-08-17T18:53:20.910Z,23.31
2017-08-17T18:54:20.965Z,23.31
2017-08-17T18:55:20.886Z,23.28
2017-08-17T18:56:20.901Z,23.28
2017-08-17T18:57:20.932Z,23.27
2017-08-17T18:58:20.965Z,23.25
2017-08-17T18:59:20.897Z,23.24
2017-08-17T19:00:20.901Z,23.21
2017-08-17T19:01:20.908Z,23.17
2017-08-17T19:02:20.905Z,23.16
2017-08-17T19:03:20.912Z,23.16
2017-08-17T19:04:20.914Z,23.15
2017-08-17T19:05:20.917Z,23.17
2017-08-17T19:06:20.924Z,23.16
2017-08-17T19:07:20.918Z,23.16
2017-08-17T19:08:20.922Z,23.16
2017-08-17T19:09:20.928Z,23.14
2017-08-17T19:10:20.930Z,23.14
2017-08-17T19:11:20.936Z,23.12
2017-08-17T19:12:20.936Z,23.10
2017-08-17T19:13:20.941Z,23.08
2017-08-17T19:14:20.940Z,23.05
2017-08-17T19:15:20.940Z,23.04
2017-08-17T19:16:20.945Z,23.00
2017-08-17T19:17:20.952Z,22.98
2017-08-17T19:18:20.962Z,22.97
2017-08-17T19:19:20.966Z,22.95
2017-08-17T19:20:20.959Z,22.95
2017-08-17T19:21:20.965Z,22.94
2017-08-17T19:22:20.982Z,22.92
2017-08-17T19:23:21.023Z,22.89
2017-08-17T19:24:20.970Z,22.85
2017-08-17T19:25:20.974Z,22.81
2017-08-17T19:26:21.043Z,22.74
2017-08-17T19:27:20.977Z,22.71
2017-08-17T19:28:20.995Z,22.67
2017-08-17T19:29:21.004Z,22.65
2017-08-17T19:30:21.066Z,22.63
2017-08-17T19:31:21.011Z,22.61
2017-08-17T19:32:21.058Z,22.58
2017-08-17T19:33:20.994Z,22.55
2017-08-17T19:34:21.076Z,22.53
2017-08-17T19:35:21.039Z,22.51
2017-08-17T19:36:21.004Z,22.48
2017-08-17T19:37:21.004Z,22.45
2017-08-17T19:38:21.007Z,22.42
2017-08-17T19:39:21.014Z,22.40
2017-08-17T19:40:21.061Z,22.36
2017-08-17T19:41:21.044Z,22.34
2017-08-17T19:42:21.022Z,22.32
2017-08-17T19:43:21.022Z,22.30
2017-08-17T19:44:21.043Z,22.30
2017-08-17T19:45:21.106Z,22.29
2017-08-17T19:46:21.099Z,22.29
2017-08-17T19:47:21.033Z,22.29
2017-08-17T19:48:21.035Z,22.28
2017-08-17T19:49:21.049Z,22.27
2017-08-17T19:50:21.100Z,22.27
2017-08-17T19:51:21.045Z,22.27
2017-08-17T19:52:21.047Z,22.27
2017-08-17T19:53:21.056Z,22.26
2017-08-17T19:54:21.053Z,22.26
2017-08-17T19:55:21.065Z,22.24
2017-08-17T19:56:21.061Z,22.23
2017-08-17T19:57:21.063Z,22.23
2017-08-17T19:58:21.066Z,22.23
2017-08-17T19:59:21.075Z,22.22
2017-08-17T20:00:21.320Z,22.22
2017-08-17T20:01:21.120Z,22.23
2017-08-17T20:02:22.467Z,22.21
2017-08-17T20:03:21.078Z,22.19
2017-08-17T20:04:21.096Z,22.18
2017-08-17T20:05:21.153Z,22.17
2017-08-17T20:06:21.109Z,22.15
2017-08-17T20:07:21.095Z,22.14
2017-08-17T20:08:21.095Z,22.12
2017-08-17T20:09:21.156Z,22.12
2017-08-17T20:10:21.097Z,22.12
2017-08-17T20:11:21.120Z,22.10
2017-08-17T20:12:21.105Z,22.10
2017-08-17T20:13:21.125Z,22.06
2017-08-17T20:14:21.118Z,22.05
2017-08-17T20:15:21.226Z,22.03
2017-08-17T20:16:21.177Z,22.02
2017-08-17T20:17:21.225Z,21.99
2017-08-17T20:18:21.135Z,21.97
2017-08-17T20:19:21.123Z,21.96
2017-08-17T20:20:21.177Z,21.95
2017-08-17T20:21:21.131Z,21.95
2017-08-17T20:22:21.147Z,21.94
2017-08-17T20:23:21.142Z,21.94
2017-08-17T20:24:21.203Z,21.94
2017-08-17T20:25:21.143Z,21.92
2017-08-17T20:26:21.166Z,21.93
2017-08-17T20:27:21.149Z,21.93
2017-08-17T20:28:21.208Z,21.92
2017-08-17T20:29:21.162Z,21.91
2017-08-17T20:30:21.188Z,21.89
2017-08-17T20:31:21.168Z,21.90
2017-08-17T20:32:21.182Z,21.87
2017-08-17T20:33:21.166Z,21.86
2017-08-17T20:34:21.175Z,21.86
2017-08-17T20:35:21.176Z,21.87
2017-08-17T20:36:21.174Z,21.88
2017-08-17T20:37:21.176Z,21.89
2017-08-17T20:38:21.188Z,21.91
2017-08-17T20:39:21.186Z,21.93
2017-08-17T20:40:21.187Z,21.94
2017-08-17T20:41:21.191Z,21.96
2017-08-17T20:42:21.190Z,21.97
2017-08-17T20:43:21.196Z,21.98
2017-08-17T20:44:21.198Z,21.99
2017-08-17T20:45:21.264Z,21.99
2017-08-17T20:46:21.204Z,22.00
2017-08-17T20:47:21.204Z,22.03
2017-08-17T20:48:21.209Z,22.02
2017-08-17T20:49:21.256Z,22.03
2017-08-17T20:50:21.301Z,22.03
2017-08-17T20:51:21.216Z,22.05
2017-08-17T20:52:21.230Z,22.07
2017-08-17T20:53:21.244Z,22.10
2017-08-17T20:54:21.236Z,22.11
2017-08-17T20:55:21.231Z,22.12
2017-08-17T20:56:21.269Z,22.12
2017-08-17T20:57:21.241Z,22.12
2017-08-17T20:58:21.355Z,22.12
2017-08-17T20:59:21.243Z,22.12